createdAt,value
2023-02-13T00:01:36.432Z,3.09
2023-02-13T00:04:05.552Z,3.10
2023-02-13T00:06:33.926Z,3.11
2023-02-13T00:09:05.162Z,3.17
2023-02-13T00:11:35.364Z,3.01
2023-02-13T00:14:06.102Z,3.06
2023-02-13T00:16:35.075Z,3.09
2023-02-13T00:19:03.501Z,2.88
2023-02-13T00:21:32.609Z,2.85
2023-02-13T00:24:00.997Z,2.89
2023-02-13T00:26:31.131Z,2.85
2023-02-13T00:28:59.441Z,2.71
2023-02-13T00:31:29.892Z,2.63
2023-02-13T00:33:59.873Z,2.65
2023-02-13T00:36:29.603Z,2.63
2023-02-13T00:38:58.508Z,2.73
2023-02-13T00:41:26.952Z,2.65
2023-02-13T00:43:56.415Z,2.57
2023-02-13T00:46:24.843Z,2.62
2023-02-13T00:48:56.740Z,2.65
2023-02-13T00:51:27.126Z,2.68
2023-02-13T00:53:55.435Z,2.72
2023-02-13T00:56:25.547Z,2.74
2023-02-13T00:58:54.183Z,2.74
2023-02-13T01:01:22.531Z,2.73
2023-02-13T01:03:51.815Z,2.73
2023-02-13T01:06:21.523Z,2.72
2023-02-13T01:08:50.674Z,2.78
2023-02-13T01:11:19.302Z,2.83
2023-02-13T01:13:48.193Z,2.88
2023-02-13T01:16:18.194Z,2.82
2023-02-13T01:18:46.687Z,2.74
2023-02-13T01:21:18.785Z,2.79
2023-02-13T01:23:49.260Z,2.75
2023-02-13T01:26:24.268Z,2.89
2023-02-13T01:28:54.842Z,2.91
2023-02-13T01:31:24.350Z,2.99
2023-02-13T01:33:57.755Z,3.02
2023-02-13T01:36:26.867Z,3.01
2023-02-13T01:39:00.568Z,2.99
2023-02-13T01:41:29.520Z,2.88
2023-02-13T01:43:59.907Z,2.90
2023-02-13T01:46:32.669Z,2.90
2023-02-13T01:49:08.162Z,2.83
2023-02-13T01:51:37.583Z,2.89
2023-02-13T01:54:12.007Z,2.87
2023-02-13T01:56:43.286Z,2.88
2023-02-13T01:59:17.559Z,2.85
2023-02-13T02:01:46.598Z,2.79
2023-02-13T02:04:19.148Z,2.80
2023-02-13T02:06:50.855Z,2.78
2023-02-13T02:09:33.652Z,2.60
2023-02-13T02:12:07.285Z,2.70
2023-02-13T02:14:39.363Z,2.57
2023-02-13T02:17:10.065Z,2.59
2023-02-13T02:19:43.534Z,2.63
2023-02-13T02:23:04.366Z,2.68
2023-02-13T02:26:10.409Z,2.72
2023-02-13T02:29:33.608Z,2.68
2023-02-13T02:32:18.706Z,2.70
2023-02-13T02:35:03.658Z,2.70
2023-02-13T02:37:46.794Z,2.66
2023-02-13T02:40:26.588Z,2.58
2023-02-13T02:43:15.035Z,2.56
2023-02-13T02:45:54.144Z,2.58
2023-02-13T02:48:50.209Z,2.59
2023-02-13T02:51:27.476Z,2.59
2023-02-13T02:54:26.853Z,2.66
2023-02-13T02:57:00.396Z,2.70
2023-02-13T02:59:51.696Z,2.62
2023-02-13T03:02:38.626Z,2.67
2023-02-13T03:05:37.348Z,2.59
2023-02-13T03:08:06.620Z,2.45
2023-02-13T03:10:57.033Z,2.48
2023-02-13T03:13:40.165Z,2.45
2023-02-13T03:16:34.050Z,2.33
2023-02-13T03:19:34.805Z,2.10
2023-02-13T03:22:19.458Z,2.02
2023-02-13T03:24:59.501Z,2.07
2023-02-13T03:27:58.536Z,2.00
2023-02-13T03:30:36.879Z,2.00
2023-02-13T03:33:19.417Z,1.99
2023-02-13T03:36:13.034Z,2.09
2023-02-13T03:38:48.651Z,2.11
2023-02-13T03:41:24.875Z,2.07
2023-02-13T03:44:12.091Z,2.12
2023-02-13T03:46:44.180Z,2.11
2023-02-13T03:49:36.527Z,2.18
2023-02-13T03:52:09.212Z,2.21
2023-02-13T03:55:02.973Z,2.31
2023-02-13T03:57:53.055Z,2.17
2023-02-13T04:00:22.406Z,2.13
2023-02-13T04:02:58.644Z,2.14
2023-02-13T04:05:33.382Z,2.19
2023-02-13T04:08:02.652Z,2.23
2023-02-13T04:10:37.589Z,2.17
2023-02-13T04:13:15.007Z,2.14
2023-02-13T04:15:51.148Z,2.07
2023-02-13T04:18:23.953Z,1.99
2023-02-13T04:20:53.757Z,2.07
2023-02-13T04:23:23.048Z,2.14
2023-02-13T04:25:57.369Z,2.17
2023-02-13T04:28:26.674Z,2.15
2023-02-13T04:30:56.334Z,2.08
2023-02-13T04:33:24.961Z,1.91
2023-02-13T04:35:53.609Z,1.91
2023-02-13T04:38:23.043Z,1.95
2023-02-13T04:40:52.717Z,2.01
2023-02-13T04:43:22.052Z,1.91
2023-02-13T04:45:51.702Z,1.92
2023-02-13T04:48:20.082Z,1.87
2023-02-13T04:50:49.716Z,1.86
2023-02-13T04:53:18.097Z,1.73
2023-02-13T04:55:47.649Z,1.74
2023-02-13T04:58:17.766Z,1.83
2023-02-13T05:00:46.256Z,1.76
2023-02-13T05:03:15.685Z,1.79
2023-02-13T05:05:44.689Z,1.72
2023-02-13T05:08:13.948Z,1.67
2023-02-13T05:10:42.738Z,1.68
2023-02-13T05:13:12.047Z,1.59
2023-02-13T05:15:42.575Z,1.62
2023-02-13T05:18:11.458Z,1.54
2023-02-13T05:20:41.213Z,1.57
2023-02-13T05:23:23.045Z,1.69
2023-02-13T05:25:52.221Z,1.74
2023-02-13T05:28:34.589Z,1.83
2023-02-13T05:31:05.775Z,1.84
2023-02-13T05:33:34.188Z,1.90
2023-02-13T05:36:03.120Z,1.83
2023-02-13T05:38:31.520Z,1.92
2023-02-13T05:41:00.964Z,1.97
2023-02-13T05:43:29.976Z,1.94
2023-02-13T05:46:08.974Z,1.94
2023-02-13T05:48:37.452Z,1.83
2023-02-13T05:51:08.315Z,1.84
2023-02-13T05:53:36.846Z,1.87
2023-02-13T05:56:07.005Z,1.82
2023-02-13T05:58:36.258Z,1.78
2023-02-13T06:01:07.005Z,1.76
2023-02-13T06:03:36.499Z,1.88
2023-02-13T06:06:05.178Z,1.95
2023-02-13T06:08:34.987Z,2.04
2023-02-13T06:11:03.937Z,2.05
2023-02-13T06:13:32.340Z,2.06
2023-02-13T06:16:01.129Z,2.10
2023-02-13T06:18:32.050Z,2.12
2023-02-13T06:21:01.231Z,2.14
2023-02-13T06:23:29.841Z,2.08
2023-02-13T06:25:58.309Z,2.12
2023-02-13T06:28:26.629Z,2.13
2023-02-13T06:30:56.130Z,2.14
2023-02-13T06:33:24.946Z,2.15
2023-02-13T06:35:55.329Z,2.06
2023-02-13T06:38:24.368Z,2.16
2023-02-13T06:40:54.058Z,2.25
2023-02-13T06:43:22.418Z,2.27
2023-02-13T06:45:51.861Z,2.29
2023-02-13T06:48:20.694Z,2.28
2023-02-13T06:50:49.033Z,2.36
2023-02-13T06:53:18.911Z,2.39
2023-02-13T06:55:48.020Z,2.41
2023-02-13T06:58:16.342Z,2.41
2023-02-13T07:00:46.075Z,2.49
2023-02-13T07:03:15.109Z,2.53
2023-02-13T07:05:44.200Z,2.54
2023-02-13T07:08:15.133Z,2.52
2023-02-13T07:10:45.058Z,2.53
2023-02-13T07:13:13.414Z,2.53
2023-02-13T07:15:42.795Z,2.55
2023-02-13T07:18:14.693Z,2.59
2023-02-13T07:20:43.007Z,2.60
2023-02-13T07:23:11.967Z,2.58
2023-02-13T07:25:40.288Z,2.54
2023-02-13T07:28:11.188Z,2.46
2023-02-13T07:30:39.661Z,2.59
2023-02-13T07:33:08.050Z,2.61
2023-02-13T07:35:37.711Z,2.55
2023-02-13T07:38:06.578Z,2.62
2023-02-13T07:40:34.928Z,2.65
2023-02-13T07:43:03.328Z,2.63
2023-02-13T07:45:33.007Z,2.66
2023-02-13T07:48:02.699Z,2.69
2023-02-13T07:50:31.175Z,2.68
2023-02-13T07:53:01.756Z,2.65
2023-02-13T07:55:31.195Z,2.65
2023-02-13T07:58:01.480Z,2.61
2023-02-13T08:00:29.900Z,2.57
2023-02-13T08:03:01.817Z,2.57
2023-02-13T08:05:32.142Z,2.53
2023-02-13T08:08:00.549Z,2.51
2023-02-13T08:10:46.317Z,2.47
2023-02-13T08:13:17.322Z,2.54
2023-02-13T08:15:45.662Z,2.60
2023-02-13T08:18:16.253Z,2.62
2023-02-13T08:20:45.439Z,2.67
2023-02-13T08:23:14.847Z,2.62
2023-02-13T08:25:43.257Z,2.63
2023-02-13T08:28:11.753Z,2.72
2023-02-13T08:30:40.721Z,2.69
2023-02-13T08:33:10.014Z,2.54
2023-02-13T08:35:39.672Z,2.61
2023-02-13T08:38:09.060Z,2.75
2023-02-13T08:40:37.405Z,3.03
2023-02-13T08:43:09.027Z,2.90
2023-02-13T08:45:38.069Z,2.85
2023-02-13T08:48:08.531Z,2.94
2023-02-13T08:50:37.400Z,2.90
2023-02-13T08:53:08.457Z,2.87
2023-02-13T08:55:36.839Z,2.84
2023-02-13T08:58:07.323Z,2.81
2023-02-13T09:00:35.707Z,2.86
2023-02-13T09:03:07.332Z,2.82
2023-02-13T09:05:36.198Z,2.74
2023-02-13T09:08:05.734Z,2.64
2023-02-13T09:10:35.867Z,2.63
2023-02-13T09:13:05.425Z,2.72
2023-02-13T09:15:34.493Z,2.63
2023-02-13T09:18:04.351Z,2.81
2023-02-13T09:20:34.733Z,2.89
2023-02-13T09:23:05.017Z,3.01
2023-02-13T09:25:35.277Z,3.14
2023-02-13T09:28:03.933Z,3.25
2023-02-13T09:30:32.778Z,3.34
2023-02-13T09:33:01.409Z,3.20
2023-02-13T09:35:30.878Z,3.12
2023-02-13T09:38:02.534Z,3.16
2023-02-13T09:40:36.540Z,3.27
2023-02-13T09:43:13.464Z,3.38
2023-02-13T09:45:44.485Z,3.42
2023-02-13T09:48:20.860Z,3.47
2023-02-13T09:50:49.284Z,3.48
2023-02-13T09:53:23.469Z,3.53
2023-02-13T09:55:59.473Z,3.57
2023-02-13T09:58:44.748Z,3.57
2023-02-13T10:01:21.547Z,3.40
2023-02-13T10:04:01.504Z,3.36
2023-02-13T10:06:33.596Z,3.36
2023-02-13T10:09:12.016Z,3.50
2023-02-13T10:12:02.327Z,3.60
2023-02-13T10:14:39.522Z,3.76
2023-02-13T10:17:14.823Z,3.84
2023-02-13T10:19:48.042Z,3.76
2023-02-13T10:22:19.103Z,3.79
2023-02-13T10:24:51.759Z,3.68
2023-02-13T10:27:23.956Z,3.74
2023-02-13T10:30:09.621Z,3.69
2023-02-13T10:32:46.561Z,3.59
2023-02-13T10:35:23.462Z,3.59
2023-02-13T10:37:56.548Z,3.67
2023-02-13T10:40:32.817Z,3.58
2023-02-13T10:43:09.650Z,3.45
2023-02-13T10:46:04.340Z,3.53
2023-02-13T10:48:46.935Z,3.58
2023-02-13T10:51:25.726Z,3.63
2023-02-13T10:54:14.030Z,3.57
2023-02-13T10:56:48.183Z,3.62
2023-02-13T10:59:43.159Z,3.74
2023-02-13T11:02:24.736Z,3.56
2023-02-13T11:04:58.903Z,3.79
2023-02-13T11:07:30.141Z,3.72
2023-02-13T11:10:04.402Z,3.77
2023-02-13T11:12:35.474Z,3.84
2023-02-13T11:15:07.257Z,3.94
2023-02-13T11:17:43.657Z,3.85
2023-02-13T11:20:30.969Z,3.80
2023-02-13T11:23:19.967Z,3.79
2023-02-13T11:25:58.260Z,3.85
2023-02-13T11:28:30.156Z,3.95
2023-02-13T11:31:14.086Z,3.99
2023-02-13T11:33:43.939Z,4.09
2023-02-13T11:36:17.085Z,4.20
2023-02-13T11:38:46.691Z,4.24
2023-02-13T11:41:20.287Z,4.26
2023-02-13T11:43:52.226Z,4.54
2023-02-13T11:46:23.460Z,4.59
2023-02-13T11:49:02.328Z,4.57
2023-02-13T11:51:40.384Z,4.56
2023-02-13T11:54:24.474Z,4.54
2023-02-13T11:57:04.712Z,4.62
2023-02-13T11:59:42.403Z,4.63
2023-02-13T12:02:16.768Z,4.65
2023-02-13T12:04:48.485Z,4.68
2023-02-13T12:07:21.886Z,4.77
2023-02-13T12:09:55.073Z,4.86
2023-02-13T12:12:30.483Z,4.89
2023-02-13T12:15:01.998Z,5.00
2023-02-13T12:17:32.841Z,4.93
2023-02-13T12:20:02.614Z,4.96
2023-02-13T12:22:35.037Z,4.99
2023-02-13T12:25:33.694Z,5.18
2023-02-13T12:28:12.898Z,5.24
2023-02-13T12:30:57.987Z,5.35
2023-02-13T12:33:40.966Z,5.35
2023-02-13T12:36:20.007Z,5.47
2023-02-13T12:39:06.565Z,5.46
2023-02-13T12:41:42.268Z,5.44
2023-02-13T12:44:29.451Z,5.61
2023-02-13T12:47:08.937Z,5.50
2023-02-13T12:50:24.663Z,5.64
2023-02-13T12:53:12.522Z,5.46
2023-02-13T12:56:14.275Z,5.64
2023-02-13T12:59:04.661Z,5.84
2023-02-13T13:02:03.801Z,6.13
2023-02-13T13:04:48.162Z,6.19
2023-02-13T13:07:32.299Z,6.12
2023-02-13T13:10:21.723Z,6.07
2023-02-13T13:12:59.288Z,5.94
2023-02-13T13:15:37.582Z,5.87
2023-02-13T13:18:29.613Z,5.97
2023-02-13T13:21:12.500Z,6.07
2023-02-13T13:23:47.906Z,6.15
2023-02-13T13:26:25.952Z,6.07
2023-02-13T13:28:57.706Z,6.29
2023-02-13T13:31:28.757Z,6.39
2023-02-13T13:34:03.891Z,6.54
2023-02-13T13:36:41.134Z,6.51
2023-02-13T13:39:21.803Z,6.49
2023-02-13T13:42:02.862Z,6.46
2023-02-13T13:44:49.425Z,6.42
2023-02-13T13:47:28.171Z,6.33
2023-02-13T13:49:59.568Z,6.51
2023-02-13T13:52:30.099Z,6.47
2023-02-13T13:55:02.824Z,6.46
2023-02-13T13:58:01.600Z,6.35
2023-02-13T14:00:31.526Z,6.26
2023-02-13T14:03:23.852Z,6.19
2023-02-13T14:06:00.210Z,6.18
2023-02-13T14:08:55.251Z,6.28
2023-02-13T14:11:32.954Z,6.28
2023-02-13T14:14:04.710Z,6.28
2023-02-13T14:16:42.594Z,6.26
2023-02-13T14:19:30.652Z,6.40
2023-02-13T14:22:35.393Z,6.48
2023-02-13T14:25:06.433Z,6.44
2023-02-13T14:27:38.243Z,6.62
2023-02-13T14:30:28.331Z,6.71
2023-02-13T14:32:57.600Z,6.60
2023-02-13T14:35:28.861Z,6.67
2023-02-13T14:38:00.333Z,6.71
2023-02-13T14:40:45.224Z,6.78
2023-02-13T14:43:28.828Z,6.77
2023-02-13T14:46:05.611Z,6.73
2023-02-13T14:48:40.494Z,6.59
2023-02-13T14:51:17.301Z,6.46
2023-02-13T14:53:53.064Z,6.35
2023-02-13T14:56:23.629Z,6.31
2023-02-13T14:58:56.417Z,6.21
2023-02-13T15:01:34.658Z,6.17
2023-02-13T15:04:12.009Z,6.15
2023-02-13T15:06:42.868Z,6.15
2023-02-13T15:09:22.829Z,6.15
2023-02-13T15:11:51.492Z,6.19
2023-02-13T15:14:22.712Z,6.17
2023-02-13T15:16:58.655Z,6.16
2023-02-13T15:19:28.363Z,6.23
2023-02-13T15:22:00.222Z,6.21
2023-02-13T15:24:37.678Z,6.23
2023-02-13T15:27:09.040Z,6.20
2023-02-13T15:29:49.538Z,6.11
2023-02-13T15:32:28.728Z,6.01
2023-02-13T15:34:57.678Z,5.92
2023-02-13T15:37:30.079Z,5.83
2023-02-13T15:40:17.487Z,5.84
2023-02-13T15:42:46.536Z,5.81
2023-02-13T15:45:19.047Z,5.90
2023-02-13T15:47:49.691Z,5.96
2023-02-13T15:50:20.524Z,5.91
2023-02-13T15:52:49.867Z,5.91
2023-02-13T15:55:24.928Z,5.94
2023-02-13T15:57:56.397Z,5.88
2023-02-13T16:00:27.867Z,5.77
2023-02-13T16:02:59.841Z,5.85
2023-02-13T16:05:39.996Z,5.81
2023-02-13T16:08:30.524Z,5.72
2023-02-13T16:11:27.254Z,5.67
2023-02-13T16:14:06.469Z,5.62
2023-02-13T16:16:44.888Z,5.64
2023-02-13T16:19:43.370Z,5.65
2023-02-13T16:22:24.508Z,5.71
2023-02-13T16:24:55.344Z,5.69
2023-02-13T16:27:27.908Z,5.71
2023-02-13T16:30:01.196Z,5.74
2023-02-13T16:32:32.149Z,5.75
2023-02-13T16:35:27.020Z,5.76
2023-02-13T16:37:58.814Z,5.69
2023-02-13T16:40:42.356Z,5.78
2023-02-13T16:43:36.576Z,5.81
2023-02-13T16:46:22.461Z,5.84
2023-02-13T16:49:03.187Z,5.68
2023-02-13T16:51:37.654Z,5.59
2023-02-13T16:54:15.902Z,5.66
2023-02-13T16:56:48.142Z,5.51
2023-02-13T16:59:50.170Z,5.66
2023-02-13T17:02:23.758Z,5.62
2023-02-13T17:04:55.584Z,5.58
2023-02-13T17:07:29.029Z,5.60
2023-02-13T17:10:02.089Z,5.55
2023-02-13T17:12:32.377Z,5.51
2023-02-13T17:15:03.482Z,5.70
2023-02-13T17:17:33.437Z,5.74
2023-02-13T17:20:04.349Z,5.66
2023-02-13T17:22:37.042Z,5.64
2023-02-13T17:25:08.451Z,5.57
2023-02-13T17:27:37.317Z,5.50
2023-02-13T17:30:07.103Z,5.52
2023-02-13T17:32:35.489Z,5.53
2023-02-13T17:35:04.377Z,5.58
2023-02-13T17:37:34.602Z,5.54
2023-02-13T17:40:05.442Z,5.46
2023-02-13T17:42:34.098Z,5.45
2023-02-13T17:45:02.537Z,5.39
2023-02-13T17:47:31.958Z,5.40
2023-02-13T17:50:09.439Z,5.45
2023-02-13T17:52:41.556Z,5.47
2023-02-13T17:55:18.123Z,5.51
2023-02-13T17:57:47.589Z,5.54
2023-02-13T18:00:16.547Z,5.59
2023-02-13T18:02:47.838Z,5.63
2023-02-13T18:05:16.903Z,5.63
2023-02-13T18:07:47.014Z,5.61
2023-02-13T18:13:07.452Z,5.64
2023-02-13T18:15:40.214Z,5.61
2023-02-13T18:18:09.013Z,5.70
2023-02-13T18:20:37.582Z,5.72
2023-02-13T18:23:07.027Z,5.71
2023-02-13T18:25:37.762Z,5.72
2023-02-13T18:28:06.211Z,5.70
2023-02-13T18:30:34.568Z,5.68
2023-02-13T18:33:05.473Z,5.66
2023-02-13T18:35:36.491Z,5.66
2023-02-13T18:38:05.706Z,5.56
2023-02-13T18:40:34.342Z,5.50
2023-02-13T18:43:04.579Z,5.50
2023-02-13T18:45:33.648Z,5.46
2023-02-13T18:48:02.917Z,5.40
2023-02-13T18:50:34.112Z,5.44
2023-02-13T18:53:02.449Z,5.46
2023-02-13T18:55:31.616Z,5.46
2023-02-13T18:58:00.770Z,5.47
2023-02-13T19:00:30.801Z,5.46
2023-02-13T19:03:00.740Z,5.43
2023-02-13T19:05:29.064Z,5.45
2023-02-13T19:07:59.762Z,5.35
2023-02-13T19:10:29.130Z,5.22
2023-02-13T19:12:57.584Z,5.20
2023-02-13T19:15:25.981Z,5.18
2023-02-13T19:17:57.666Z,5.21
2023-02-13T19:20:26.282Z,5.22
2023-02-13T19:22:55.093Z,5.23
2023-02-13T19:25:24.021Z,5.19
2023-02-13T19:27:52.387Z,5.20
2023-02-13T19:30:21.086Z,5.18
2023-02-13T19:32:49.997Z,5.15
2023-02-13T19:35:19.896Z,5.16
2023-02-13T19:37:48.251Z,5.16
2023-02-13T19:40:16.782Z,5.05
2023-02-13T19:42:45.092Z,5.03
2023-02-13T19:45:13.475Z,5.04
2023-02-13T19:47:41.908Z,4.94
2023-02-13T19:50:11.164Z,4.72
2023-02-13T19:52:43.678Z,4.66
2023-02-13T19:55:11.985Z,4.74
2023-02-13T19:57:40.745Z,4.67
2023-02-13T20:00:10.248Z,4.51
2023-02-13T20:02:43.289Z,4.45
2023-02-13T20:05:11.866Z,4.52
2023-02-13T20:07:41.092Z,4.56
2023-02-13T20:10:11.653Z,4.56
2023-02-13T20:12:40.530Z,4.48
2023-02-13T20:15:10.116Z,4.41
2023-02-13T20:17:38.832Z,4.41
2023-02-13T20:20:09.314Z,4.37
2023-02-13T20:22:37.645Z,4.32
2023-02-13T20:25:07.241Z,4.20
2023-02-13T20:27:42.036Z,3.96
2023-02-13T20:30:15.649Z,3.81
2023-02-13T20:32:44.330Z,3.78
2023-02-13T20:35:14.876Z,3.80
2023-02-13T20:37:43.309Z,3.71
2023-02-13T20:40:13.342Z,3.58
2023-02-13T20:42:43.076Z,3.47
2023-02-13T20:45:12.235Z,3.45
2023-02-13T20:47:42.805Z,3.29
2023-02-13T20:50:12.344Z,3.26
2023-02-13T20:52:41.212Z,3.15
2023-02-13T20:55:10.115Z,2.93
2023-02-13T20:57:38.428Z,2.90
2023-02-13T21:00:13.608Z,2.80
2023-02-13T21:02:42.018Z,2.68
2023-02-13T21:05:10.926Z,2.56
2023-02-13T21:07:39.427Z,2.50
2023-02-13T21:10:08.476Z,2.45
2023-02-13T21:12:36.890Z,2.30
2023-02-13T21:15:05.544Z,2.24
2023-02-13T21:17:35.684Z,2.17
2023-02-13T21:20:05.593Z,1.96
2023-02-13T21:22:35.330Z,2.12
2023-02-13T21:25:04.154Z,2.09
2023-02-13T21:27:32.892Z,2.09
2023-02-13T21:30:01.789Z,2.13
2023-02-13T21:32:30.285Z,2.14
2023-02-13T21:35:01.053Z,2.21
2023-02-13T21:37:30.542Z,2.17
2023-02-13T21:39:59.805Z,2.18
2023-02-13T21:42:28.565Z,2.16
2023-02-13T21:44:56.877Z,2.19
2023-02-13T21:47:26.314Z,2.27
2023-02-13T21:49:54.667Z,2.37
2023-02-13T21:52:31.849Z,2.39
2023-02-13T21:55:00.207Z,2.35
2023-02-13T21:57:29.409Z,2.35
2023-02-13T21:59:58.109Z,2.43
2023-02-13T22:02:28.840Z,2.47
2023-02-13T22:04:57.231Z,2.58
2023-02-13T22:07:27.501Z,2.69
2023-02-13T22:09:56.357Z,2.78
2023-02-13T22:12:24.862Z,2.80
2023-02-13T22:14:56.022Z,2.87
2023-02-13T22:17:24.403Z,2.94
2023-02-13T22:19:53.143Z,3.00
2023-02-13T22:22:21.499Z,3.03
2023-02-13T22:24:52.789Z,3.09
2023-02-13T22:27:21.140Z,3.09
2023-02-13T22:29:52.400Z,3.03
2023-02-13T22:32:21.357Z,3.00
2023-02-13T22:34:50.195Z,2.90
2023-02-13T22:37:18.556Z,2.93
2023-02-13T22:39:46.959Z,2.99
2023-02-13T22:42:16.695Z,2.98
2023-02-13T22:44:45.655Z,2.89
2023-02-13T22:47:14.008Z,2.79
2023-02-13T22:49:42.398Z,2.84
2023-02-13T22:52:11.483Z,2.89
2023-02-13T22:54:40.667Z,2.92
2023-02-13T22:57:09.074Z,2.92
2023-02-13T22:59:40.252Z,2.99
2023-02-13T23:02:08.728Z,2.92
2023-02-13T23:04:37.178Z,2.89
2023-02-13T23:07:05.608Z,2.92
2023-02-13T23:09:34.830Z,2.85
2023-02-13T23:12:20.937Z,2.84
2023-02-13T23:14:51.069Z,2.70
2023-02-13T23:17:37.194Z,2.72
2023-02-13T23:20:07.729Z,2.70
2023-02-13T23:22:36.420Z,2.66
2023-02-13T23:25:06.190Z,2.66
2023-02-13T23:27:36.335Z,2.66
2023-02-13T23:30:08.309Z,2.71
2023-02-13T23:32:37.277Z,2.72
2023-02-13T23:35:07.381Z,2.73
2023-02-13T23:37:36.272Z,2.72
2023-02-13T23:40:05.242Z,2.72
2023-02-13T23:42:35.053Z,2.73
2023-02-13T23:45:03.436Z,2.73
2023-02-13T23:47:33.572Z,2.80
2023-02-13T23:50:01.895Z,2.69
2023-02-13T23:52:31.067Z,2.51
2023-02-13T23:54:59.968Z,2.45
2023-02-13T23:57:28.356Z,2.47
2023-02-13T23:59:57.482Z,2.48
